Wetterdaten: Woche 12.12.05 - 18.12.05 (KW50)
Datum Zeit Temperatur Luftfeuchte Luftdruck Niederschlag Wind Richtung Sonne Solar Taupunkt Windchill
12.12.2005 00:00 -3.8 C 71 % 1032.6 hPa 0.0 l/m 2.0 km/h (1 Bft) O-SO 0.00 h 0 W/m -8.3 C -4.3 C
12.12.2005 01:00 -3.9 C 71 % 1031.7 hPa 0.0 l/m 2.2 km/h (1 Bft) O-SO 0.00 h 0 W/m -8.3 C -4.6 C
12.12.2005 02:00 -4.7 C 74 % 1031.8 hPa 0.0 l/m 1.9 km/h (1 Bft) O-SO 0.00 h 0 W/m -8.7 C -4.9 C
12.12.2005 03:00 -5.0 C 74 % 1031.1 hPa 0.0 l/m 0.3 km/h (0 Bft) O-SO 0.00 h 0 W/m -8.9 C -5.1 C
12.12.2005 04:00 -5.6 C 77 % 1030.8 hPa 0.0 l/m 3.0 km/h (1 Bft) O-SO 0.00 h 0 W/m -9.0 C -6.6 C
12.12.2005 05:00 -5.1 C 79 % 1029.8 hPa 0.0 l/m 7.2 km/h (2 Bft) O-SO 0.00 h 0 W/m -8.2 C -8.2 C
12.12.2005 06:00 -4.9 C 77 % 1029.7 hPa 0.0 l/m 6.2 km/h (2 Bft) O-SO 0.00 h 0 W/m -8.3 C -7.4 C
12.12.2005 07:00 -5.2 C 75 % 1029.8 hPa 0.0 l/m 1.7 km/h (1 Bft) O-SO 0.00 h 0 W/m -8.9 C -5.8 C
12.12.2005 08:00 -5.5 C 79 % 1030.0 hPa 0.0 l/m 0.1 km/h (0 Bft) N 0.03 h 23 W/m -8.6 C -5.5 C
12.12.2005 09:00 -4.8 C 79 % 1030.7 hPa 0.0 l/m 0.0 km/h (0 Bft) N 0.57 h 121 W/m -7.8 C -4.8 C
12.12.2005 10:00 -3.6 C 75 % 1030.6 hPa 0.0 l/m 0.4 km/h (0 Bft) N-NW 0.28 h 150 W/m -7.5 C -3.6 C
12.12.2005 11:00 -2.5 C 67 % 1029.8 hPa 0.0 l/m 0.0 km/h (0 Bft) N 0.87 h 292 W/m -7.7 C -2.5 C
12.12.2005 12:00 -0.4 C 61 % 1028.8 hPa 0.0 l/m 6.5 km/h (2 Bft) O-SO 1.00 h 347 W/m -7.0 C -2.4 C
12.12.2005 13:00 1.1 C 55 % 1027.8 hPa 0.0 l/m 10.8 km/h (2 Bft) O-SO 1.00 h 320 W/m -7.0 C -2.1 C
12.12.2005 14:00 1.6 C 52 % 1027.7 hPa 0.0 l/m 11.3 km/h (2 Bft) O-SO 1.00 h 246 W/m -7.3 C -1.6 C
12.12.2005 15:00 1.1 C 54 % 1027.8 hPa 0.0 l/m 2.1 km/h (1 Bft) O-SO 1.00 h 123 W/m -7.1 C 0.5 C
12.12.2005 16:00 -0.7 C 64 % 1028.1 hPa 0.0 l/m 0.0 km/h (0 Bft) N 0.30 h 25 W/m -6.7 C -0.7 C
12.12.2005 17:00 -2.2 C 68 % 1028.3 hPa 0.0 l/m 3.4 km/h (1 Bft) W-NW 0.00 h 0 W/m -7.2 C -3.4 C
12.12.2005 18:00 -3.4 C 74 % 1028.8 hPa 0.0 l/m 3.2 km/h (1 Bft) O-SO 0.00 h 0 W/m -7.4 C -4.6 C
12.12.2005 19:00 -4.3 C 78 % 1029.6 hPa 0.0 l/m 0.2 km/h (0 Bft) O-SO 0.00 h 0 W/m -7.5 C -4.3 C
12.12.2005 20:00 -3.4 C 83 % 1029.5 hPa 0.0 l/m 0.0 km/h (0 Bft) N 0.00 h 0 W/m -5.8 C -3.4 C
12.12.2005 21:00 -2.8 C 82 % 1030.2 hPa 0.0 l/m 0.6 km/h (0 Bft) O-SO 0.00 h 0 W/m -5.4 C -2.8 C
12.12.2005 22:00 -2.2 C 80 % 1030.4 hPa 0.0 l/m 0.0 km/h (0 Bft) N 0.00 h 0 W/m -5.2 C -2.2 C
12.12.2005 23:00 -1.8 C 79 % 1030.3 hPa 0.0 l/m 0.0 km/h (0 Bft) N 0.00 h 0 W/m -5.0 C -1.8 C
13.12.2005 00:00 -1.5 C 80 % 1030.3 hPa 0.0 l/m 0.0 km/h (0 Bft) N 0.00 h 0 W/m -4.6 C -1.5 C
13.12.2005 01:00 -1.3 C 80 % 1030.2 hPa 0.0 l/m 0.0 km/h (0 Bft) N 0.00 h 0 W/m -4.4 C -1.3 C
13.12.2005 02:00 -1.3 C 80 % 1030.2 hPa 0.0 l/m 0.0 km/h (0 Bft) N 0.00 h 0 W/m -4.2 C -1.3 C
13.12.2005 03:00 -1.1 C 80 % 1030.2 hPa 0.0 l/m 0.0 km/h (0 Bft) N 0.00 h 0 W/m -4.1 C -1.1 C
13.12.2005 04:00 -0.9 C 80 % 1030.2 hPa 0.0 l/m 0.0 km/h (0 Bft) N 0.00 h 0 W/m -3.9 C -0.9 C
13.12.2005 05:00 -0.9 C 80 % 1030.2 hPa 0.0 l/m 0.0 km/h (0 Bft) N 0.00 h 0 W/m -4.0 C -0.9 C
13.12.2005 06:00 -1.0 C 81 % 1030.3 hPa 0.0 l/m 0.0 km/h (0 Bft) N 0.00 h 0 W/m -3.9 C -1.0 C
13.12.2005 07:00 -0.8 C 79 % 1031.2 hPa 0.0 l/m 4.2 km/h (1 Bft) O-SO 0.00 h 0 W/m -4.1 C -2.1 C
13.12.2005 08:00 -0.3 C 75 % 1031.1 hPa 0.0 l/m 1.4 km/h (1 Bft) O 0.00 h 6 W/m -4.2 C -0.4 C
13.12.2005 09:00 0.0 C 74 % 1031.1 hPa 0.0 l/m 0.1 km/h (0 Bft) O 0.00 h 19 W/m -4.1 C 0.0 C
13.12.2005 10:00 0.3 C 76 % 1032.1 hPa 0.0 l/m 0.2 km/h (0 Bft) N-NW 0.00 h 37 W/m -3.5 C 0.3 C
13.12.2005 11:00 0.6 C 76 % 1031.8 hPa 0.0 l/m 2.6 km/h (1 Bft) W-NW 0.00 h 95 W/m -3.0 C -0.1 C
13.12.2005 12:00 1.4 C 77 % 1030.9 hPa 0.0 l/m 0.2 km/h (0 Bft) NW 0.00 h 60 W/m -2.3 C 1.4 C
13.12.2005 13:00 1.9 C 75 % 1030.0 hPa 0.0 l/m 0.0 km/h (0 Bft) N 0.00 h 40 W/m -1.9 C 1.9 C
13.12.2005 14:00 2.0 C 76 % 1029.7 hPa 0.0 l/m 0.0 km/h (0 Bft) N 0.00 h 22 W/m -1.8 C 2.0 C
13.12.2005 15:00 2.1 C 75 % 1030.3 hPa 0.0 l/m 1.7 km/h (1 Bft) O 0.00 h 9 W/m -2.0 C 1.7 C
13.12.2005 16:00 1.9 C 75 % 1030.5 hPa 0.0 l/m 0.1 km/h (0 Bft) N 0.00 h 3 W/m -2.0 C 1.9 C
13.12.2005 17:00 2.0 C 78 % 1030.8 hPa 0.0 l/m 0.2 km/h (0 Bft) O-SO 0.00 h 0 W/m -1.5 C 2.0 C
13.12.2005 18:00 2.4 C 75 % 1030.7 hPa 0.0 l/m 0.0 km/h (0 Bft) N 0.00 h 0 W/m -1.6 C 2.4 C
13.12.2005 19:00 2.5 C 72 % 1030.7 hPa 0.0 l/m 0.2 km/h (0 Bft) NO 0.00 h 0 W/m -2.0 C 2.5 C
13.12.2005 20:00 2.3 C 71 % 1030.7 hPa 0.0 l/m 1.3 km/h (1 Bft) O-SO 0.00 h 0 W/m -2.4 C 2.1 C
13.12.2005 21:00 1.9 C 71 % 1030.5 hPa 0.0 l/m 1.1 km/h (1 Bft) O-SO 0.00 h 0 W/m -2.7 C 1.6 C
13.12.2005 22:00 1.6 C 73 % 1029.6 hPa 0.0 l/m 0.2 km/h (0 Bft) O-SO 0.00 h 0 W/m -2.8 C 1.6 C
13.12.2005 23:00 1.5 C 73 % 1028.8 hPa 0.0 l/m 0.1 km/h (0 Bft) N 0.00 h 0 W/m -2.9 C 1.5 C
14.12.2005 00:00 1.3 C 72 % 1028.8 hPa 0.0 l/m 0.4 km/h (0 Bft) O-SO 0.00 h 0 W/m -3.1 C 1.2 C
14.12.2005 01:00 1.3 C 67 % 1028.5 hPa 0.0 l/m 0.3 km/h (0 Bft) NO 0.00 h 0 W/m -4.3 C 1.3 C
14.12.2005 02:00 1.2 C 60 % 1027.8 hPa 0.0 l/m 0.7 km/h (0 Bft) N-NO 0.00 h 0 W/m -5.6 C 1.2 C
14.12.2005 03:00 0.9 C 60 % 1027.8 hPa 0.0 l/m 1.2 km/h (1 Bft) NO 0.00 h 0 W/m -6.0 C 0.6 C
14.12.2005 04:00 0.8 C 60 % 1027.8 hPa 0.0 l/m 0.0 km/h (0 Bft) N 0.00 h 0 W/m -6.0 C 0.8 C
14.12.2005 05:00 0.6 C 63 % 1027.6 hPa 0.0 l/m 0.0 km/h (0 Bft) N 0.00 h 0 W/m -5.7 C 0.6 C
14.12.2005 06:00 0.9 C 61 % 1026.8 hPa 0.0 l/m 0.0 km/h (0 Bft) N 0.00 h 0 W/m -5.7 C 0.9 C
14.12.2005 07:00 1.1 C 60 % 1026.8 hPa 0.0 l/m 0.1 km/h (0 Bft) O-SO 0.00 h 0 W/m -5.8 C 1.1 C
14.12.2005 08:00 1.0 C 61 % 1026.8 hPa 0.0 l/m 0.0 km/h (0 Bft) N 0.00 h 5 W/m -5.6 C 1.0 C
14.12.2005 09:00 1.3 C 62 % 1026.7 hPa 0.0 l/m 0.2 km/h (0 Bft) N 0.00 h 20 W/m -5.3 C 1.3 C
14.12.2005 10:00 1.5 C 62 % 1026.7 hPa 0.0 l/m 0.4 km/h (0 Bft) O-NO 0.00 h 42 W/m -5.0 C 1.4 C
14.12.2005 11:00 1.8 C 61 % 1026.6 hPa 0.0 l/m 0.0 km/h (0 Bft) N 0.00 h 53 W/m -4.8 C 1.8 C
14.12.2005 12:00 2.0 C 61 % 1026.1 hPa 0.0 l/m 0.0 km/h (0 Bft) N 0.00 h 55 W/m -4.8 C 2.0 C
14.12.2005 13:00 2.4 C 59 % 1025.5 hPa 0.0 l/m 0.4 km/h (0 Bft) SO 0.00 h 92 W/m -4.7 C 2.3 C
14.12.2005 14:00 2.6 C 58 % 1025.5 hPa 0.0 l/m 1.9 km/h (1 Bft) O-SO 0.00 h 72 W/m -4.8 C 2.3 C
14.12.2005 15:00 2.4 C 58 % 1025.5 hPa 0.0 l/m 0.2 km/h (0 Bft) N 0.00 h 39 W/m -5.0 C 2.4 C
14.12.2005 16:00 1.9 C 61 % 1025.6 hPa 0.0 l/m 0.7 km/h (0 Bft) O-SO 0.00 h 10 W/m -4.8 C 1.8 C
14.12.2005 17:00 1.4 C 63 % 1025.9 hPa 0.0 l/m 0.4 km/h (0 Bft) O-SO 0.00 h 0 W/m -4.8 C 1.4 C
14.12.2005 18:00 1.1 C 66 % 1026.0 hPa 0.0 l/m 0.5 km/h (0 Bft) O-SO 0.00 h 0 W/m -4.5 C 1.1 C
14.12.2005 19:00 0.6 C 70 % 1026.0 hPa 0.0 l/m 0.2 km/h (0 Bft) N 0.00 h 0 W/m -4.3 C 0.6 C
14.12.2005 20:00 0.0 C 73 % 1026.6 hPa 0.0 l/m 0.0 km/h (0 Bft) N 0.00 h 0 W/m -4.3 C 0.0 C
14.12.2005 21:00 -0.1 C 75 % 1026.5 hPa 0.0 l/m 0.0 km/h (0 Bft) N 0.00 h 0 W/m -4.0 C -0.1 C
14.12.2005 22:00 -0.4 C 78 % 1025.9 hPa 0.0 l/m 0.0 km/h (0 Bft) N 0.00 h 0 W/m -3.8 C -0.4 C
14.12.2005 23:00 -0.2 C 78 % 1025.9 hPa 0.0 l/m 0.0 km/h (0 Bft) N 0.00 h 0 W/m -3.6 C -0.2 C
15.12.2005 00:00 -0.1 C 78 % 1025.9 hPa 0.0 l/m 0.0 km/h (0 Bft) N 0.00 h 0 W/m -3.4 C -0.1 C
15.12.2005 01:00 -0.0 C 78 % 1025.9 hPa 0.0 l/m 0.0 km/h (0 Bft) N 0.00 h 0 W/m -3.4 C -0.0 C
15.12.2005 02:00 0.0 C 78 % 1025.9 hPa 0.0 l/m 0.0 km/h (0 Bft) N 0.00 h 0 W/m -3.3 C 0.0 C
15.12.2005 03:00 0.1 C 79 % 1025.7 hPa 0.0 l/m 0.2 km/h (0 Bft) O-SO 0.00 h 0 W/m -3.1 C 0.0 C
15.12.2005 04:00 -1.0 C 80 % 1025.9 hPa 0.0 l/m 0.0 km/h (0 Bft) N 0.00 h 0 W/m -3.9 C -1.0 C
15.12.2005 05:00 -0.8 C 84 % 1025.6 hPa 0.0 l/m 0.0 km/h (0 Bft) N 0.00 h 0 W/m -3.1 C -0.8 C
15.12.2005 06:00 -1.0 C 85 % 1025.4 hPa 0.0 l/m 1.0 km/h (0 Bft) SO 0.00 h 0 W/m -3.2 C -1.1 C
15.12.2005 07:00 -1.1 C 87 % 1024.6 hPa 0.0 l/m 0.0 km/h (0 Bft) N 0.00 h 0 W/m -3.1 C -1.1 C
15.12.2005 08:00 -2.1 C 87 % 1024.6 hPa 0.0 l/m 0.0 km/h (0 Bft) N 0.07 h 29 W/m -4.0 C -2.1 C
15.12.2005 09:00 -1.1 C 82 % 1025.5 hPa 0.0 l/m 1.3 km/h (1 Bft) SO 0.40 h 115 W/m -3.7 C -1.1 C
15.12.2005 10:00 0.1 C 76 % 1025.8 hPa 0.0 l/m 2.1 km/h (1 Bft) SO 0.30 h 150 W/m -3.7 C -0.4 C
15.12.2005 11:00 1.0 C 67 % 1024.8 hPa 0.0 l/m 7.2 km/h (2 Bft) S-SW 0.72 h 289 W/m -4.3 C -0.8 C
15.12.2005 12:00 2.0 C 62 % 1024.1 hPa 0.0 l/m 3.6 km/h (1 Bft) W 1.00 h 340 W/m -4.5 C 1.2 C
15.12.2005 13:00 3.4 C 56 % 1022.5 hPa 0.0 l/m 4.0 km/h (1 Bft) SO 0.98 h 327 W/m -4.7 C 2.6 C
15.12.2005 14:00 4.2 C 53 % 1022.3 hPa 0.0 l/m 8.1 km/h (2 Bft) W-NW 0.30 h 155 W/m -4.5 C 2.4 C
15.12.2005 15:00 4.1 C 54 % 1022.1 hPa 0.0 l/m 14.0 km/h (3 Bft) W-NW 0.00 h 55 W/m -4.4 C 0.9 C
15.12.2005 16:00 3.7 C 58 % 1021.4 hPa 0.0 l/m 8.4 km/h (2 Bft) W-NW 0.17 h 21 W/m -3.8 C 1.6 C
15.12.2005 17:00 3.2 C 63 % 1021.4 hPa 0.0 l/m 7.3 km/h (2 Bft) W-NW 0.00 h 0 W/m -3.2 C 1.5 C
15.12.2005 18:00 3.3 C 65 % 1021.9 hPa 0.0 l/m 10.5 km/h (2 Bft) W-NW 0.00 h 0 W/m -2.7 C 0.9 C
15.12.2005 19:00 3.1 C 64 % 1022.3 hPa 0.0 l/m 4.0 km/h (1 Bft) W-NW 0.00 h 0 W/m -3.0 C 2.4 C
15.12.2005 20:00 2.8 C 60 % 1022.3 hPa 0.0 l/m 1.0 km/h (0 Bft) SW 0.00 h 0 W/m -4.0 C 2.7 C
15.12.2005 21:00 2.6 C 62 % 1022.4 hPa 0.0 l/m 1.4 km/h (1 Bft) SO 0.00 h 0 W/m -3.9 C 2.4 C
15.12.2005 22:00 2.8 C 61 % 1022.0 hPa 0.0 l/m 2.3 km/h (1 Bft) S 0.00 h 0 W/m -4.0 C 2.5 C
15.12.2005 23:00 2.7 C 61 % 1021.5 hPa 0.0 l/m 5.2 km/h (1 Bft) SW 0.00 h 0 W/m -4.1 C 1.5 C
16.12.2005 00:00 2.4 C 62 % 1021.0 hPa 0.0 l/m 7.0 km/h (2 Bft) SO 0.00 h 0 W/m -4.0 C 0.6 C
16.12.2005 01:00 2.5 C 63 % 1019.6 hPa 0.0 l/m 6.8 km/h (2 Bft) SW 0.00 h 0 W/m -3.8 C 0.7 C
16.12.2005 02:00 2.4 C 64 % 1019.2 hPa 0.0 l/m 10.4 km/h (2 Bft) S-SO 0.00 h 0 W/m -3.7 C -0.3 C
16.12.2005 03:00 2.4 C 65 % 1018.2 hPa 0.0 l/m 11.5 km/h (2 Bft) SW 0.00 h 0 W/m -3.5 C -0.7 C
16.12.2005 04:00 2.4 C 67 % 1017.1 hPa 0.0 l/m 8.4 km/h (2 Bft) S 0.00 h 0 W/m -3.2 C 0.3 C
16.12.2005 05:00 2.2 C 75 % 1015.9 hPa 0.0 l/m 4.6 km/h (1 Bft) SO 0.00 h 0 W/m -1.8 C 1.2 C
16.12.2005 06:00 2.3 C 82 % 1015.0 hPa 0.3 l/m 6.6 km/h (2 Bft) S-SO 0.00 h 0 W/m -0.5 C 0.7 C
16.12.2005 07:00 1.9 C 84 % 1014.1 hPa 0.6 l/m 11.9 km/h (2 Bft) S 0.00 h 0 W/m -0.5 C -1.1 C
16.12.2005 08:00 1.7 C 87 % 1012.9 hPa 1.6 l/m 15.0 km/h (3 Bft) S-SO 0.00 h 2 W/m -0.3 C -2.2 C
16.12.2005 09:00 2.2 C 88 % 1012.1 hPa 1.6 l/m 7.3 km/h (2 Bft) SW 0.00 h 8 W/m 0.3 C 0.2 C
16.12.2005 10:00 2.6 C 89 % 1011.7 hPa 2.0 l/m 8.4 km/h (2 Bft) W 0.00 h 35 W/m 0.9 C 0.6 C
16.12.2005 11:00 3.4 C 87 % 1010.7 hPa 1.0 l/m 14.3 km/h (3 Bft) W 0.00 h 47 W/m 1.4 C 0.4 C
16.12.2005 12:00 3.4 C 86 % 1009.7 hPa 1.3 l/m 18.1 km/h (3 Bft) W 0.00 h 47 W/m 1.3 C -0.5 C
16.12.2005 13:00 3.2 C 88 % 1008.8 hPa 1.3 l/m 14.2 km/h (3 Bft) W 0.00 h 30 W/m 1.4 C -0.2 C
16.12.2005 14:00 3.6 C 89 % 1008.4 hPa 1.6 l/m 12.0 km/h (2 Bft) W 0.00 h 23 W/m 2.0 C 0.9 C
16.12.2005 15:00 3.7 C 90 % 1007.7 hPa 1.0 l/m 14.2 km/h (3 Bft) S-SW 0.00 h 7 W/m 2.2 C 0.5 C
16.12.2005 16:00 3.8 C 90 % 1007.6 hPa 1.0 l/m 15.4 km/h (3 Bft) W-SW 0.00 h 2 W/m 2.3 C 0.2 C
16.12.2005 17:00 4.0 C 92 % 1007.1 hPa 0.6 l/m 20.4 km/h (4 Bft) W 0.00 h 0 W/m 2.8 C -0.2 C
16.12.2005 18:00 4.1 C 92 % 1006.6 hPa 0.3 l/m 10.9 km/h (2 Bft) W 0.00 h 0 W/m 2.9 C 1.7 C
16.12.2005 19:00 5.6 C 92 % 1006.4 hPa 0.3 l/m 25.1 km/h (4 Bft) W 0.00 h 0 W/m 4.3 C 1.3 C
16.12.2005 20:00 5.4 C 88 % 1007.8 hPa 1.6 l/m 23.7 km/h (4 Bft) NW 0.00 h 0 W/m 3.5 C 1.4 C
16.12.2005 21:00 3.8 C 86 % 1008.7 hPa 0.0 l/m 16.1 km/h (3 Bft) W-NW 0.00 h 0 W/m 1.7 C 0.2 C
16.12.2005 22:00 3.6 C 85 % 1008.7 hPa 0.0 l/m 14.5 km/h (3 Bft) W 0.00 h 0 W/m 1.4 C 0.3 C
16.12.2005 23:00 3.5 C 86 % 1008.7 hPa 0.0 l/m 15.1 km/h (3 Bft) W 0.00 h 0 W/m 1.3 C -0.1 C
17.12.2005 00:00 3.8 C 86 % 1008.7 hPa 0.0 l/m 23.0 km/h (4 Bft) W-NW 0.00 h 0 W/m 1.7 C -0.8 C
17.12.2005 01:00 3.8 C 84 % 1008.7 hPa 0.0 l/m 24.6 km/h (4 Bft) W-NW 0.00 h 0 W/m 1.3 C -1.0 C
17.12.2005 02:00 3.4 C 85 % 1008.7 hPa 0.0 l/m 20.7 km/h (4 Bft) W-NW 0.00 h 0 W/m 1.0 C -1.1 C
17.12.2005 03:00 2.9 C 82 % 1008.8 hPa 0.0 l/m 26.4 km/h (4 Bft) W-NW 0.00 h 0 W/m 0.1 C -2.3 C
17.12.2005 04:00 2.4 C 81 % 1008.9 hPa 0.0 l/m 24.6 km/h (4 Bft) W-NW 0.00 h 0 W/m -0.5 C -2.7 C
17.12.2005 05:00 2.0 C 79 % 1009.1 hPa 0.0 l/m 32.9 km/h (5 Bft) W-NW 0.00 h 0 W/m -1.3 C -4.0 C
17.12.2005 06:00 1.9 C 79 % 1009.3 hPa 0.0 l/m 34.2 km/h (5 Bft) W-NW 0.00 h 0 W/m -1.3 C -4.4 C
17.12.2005 07:00 1.6 C 82 % 1009.9 hPa 0.0 l/m 37.0 km/h (5 Bft) W-NW 0.00 h 0 W/m -1.1 C -5.0 C
17.12.2005 08:00 1.4 C 84 % 1010.1 hPa 0.0 l/m 35.1 km/h (5 Bft) W-NW 0.00 h 8 W/m -1.0 C -5.0 C
17.12.2005 09:00 1.1 C 82 % 1010.7 hPa 0.3 l/m 34.4 km/h (5 Bft) W-NW 0.00 h 26 W/m -1.6 C -5.3 C
17.12.2005 10:00 1.2 C 79 % 1011.1 hPa 0.0 l/m 34.3 km/h (5 Bft) W-NW 0.00 h 72 W/m -2.0 C -5.3 C
17.12.2005 11:00 0.9 C 82 % 1011.2 hPa 0.0 l/m 34.3 km/h (5 Bft) W-NW 0.00 h 97 W/m -1.8 C -5.7 C
17.12.2005 12:00 1.1 C 82 % 1011.1 hPa 0.0 l/m 29.3 km/h (5 Bft) W-NW 0.03 h 147 W/m -1.6 C -4.9 C
17.12.2005 13:00 0.8 C 82 % 1011.4 hPa 0.0 l/m 19.0 km/h (3 Bft) W-NW 0.10 h 109 W/m -1.9 C -3.8 C
17.12.2005 14:00 1.0 C 80 % 1012.2 hPa 0.0 l/m 15.1 km/h (3 Bft) W-NW 0.27 h 120 W/m -2.1 C -3.2 C
17.12.2005 15:00 1.1 C 76 % 1012.2 hPa 0.0 l/m 21.0 km/h (4 Bft) W-NW 0.33 h 95 W/m -2.7 C -3.9 C
17.12.2005 16:00 0.1 C 77 % 1012.5 hPa 0.0 l/m 21.0 km/h (4 Bft) W-NW 0.03 h 16 W/m -3.4 C -5.2 C
17.12.2005 17:00 0.0 C 80 % 1013.4 hPa 0.0 l/m 23.2 km/h (4 Bft) W-NW 0.00 h 0 W/m -3.0 C -5.6 C
17.12.2005 18:00 -0.4 C 85 % 1013.4 hPa 0.0 l/m 26.7 km/h (4 Bft) W-NW 0.00 h 0 W/m -2.5 C -6.5 C
17.12.2005 19:00 -0.4 C 82 % 1014.0 hPa 0.3 l/m 29.8 km/h (5 Bft) W-NW 0.00 h 0 W/m -3.1 C -6.9 C
17.12.2005 20:00 -0.6 C 88 % 1014.5 hPa 0.3 l/m 28.2 km/h (4 Bft) W-NW 0.00 h 0 W/m -2.3 C -7.0 C
17.12.2005 21:00 -0.8 C 91 % 1014.5 hPa 0.3 l/m 29.4 km/h (5 Bft) W-NW 0.00 h 0 W/m -2.0 C -7.3 C
17.12.2005 22:00 -0.9 C 90 % 1015.0 hPa 0.0 l/m 26.5 km/h (4 Bft) W-NW 0.00 h 0 W/m -2.3 C -7.1 C
17.12.2005 23:00 -1.2 C 93 % 1016.1 hPa 0.3 l/m 24.8 km/h (4 Bft) W-NW 0.00 h 0 W/m -2.1 C -7.3 C
18.12.2005 00:00 -1.7 C 94 % 1017.6 hPa 0.0 l/m 10.2 km/h (2 Bft) W-NW 0.00 h 0 W/m -2.6 C -4.8 C
18.12.2005 01:00 -1.6 C 92 % 1018.1 hPa 0.0 l/m 19.9 km/h (4 Bft) W-NW 0.00 h 0 W/m -2.7 C -7.2 C
18.12.2005 02:00 -2.2 C 90 % 1019.2 hPa 0.0 l/m 9.3 km/h (2 Bft) W-NW 0.00 h 0 W/m -3.6 C -5.3 C
18.12.2005 03:00 -3.2 C 89 % 1020.1 hPa 0.0 l/m 0.9 km/h (0 Bft) W-SW 0.00 h 0 W/m -4.7 C -3.4 C
18.12.2005 04:00 -2.1 C 91 % 1020.5 hPa 0.0 l/m 1.4 km/h (1 Bft) NW 0.00 h 0 W/m -3.5 C -2.4 C
18.12.2005 05:00 -1.5 C 90 % 1021.1 hPa 0.0 l/m 11.2 km/h (2 Bft) W-NW 0.00 h 0 W/m -2.9 C -4.9 C
18.12.2005 06:00 -2.0 C 85 % 1022.0 hPa 0.0 l/m 2.0 km/h (1 Bft) W-NW 0.00 h 0 W/m -4.2 C -2.6 C
18.12.2005 07:00 -1.8 C 85 % 1022.5 hPa 0.0 l/m 0.1 km/h (0 Bft) N-NW 0.00 h 0 W/m -4.0 C -1.8 C
18.12.2005 08:00 -1.7 C 85 % 1023.5 hPa 0.3 l/m 3.3 km/h (1 Bft) SO 0.00 h 14 W/m -3.9 C -2.7 C
18.12.2005 09:00 -1.3 C 82 % 1024.0 hPa 0.0 l/m 4.3 km/h (1 Bft) SO 0.00 h 51 W/m -3.9 C -2.6 C
18.12.2005 10:00 -0.5 C 78 % 1024.6 hPa 0.0 l/m 1.4 km/h (1 Bft) SO 0.53 h 155 W/m -3.8 C -0.7 C
18.12.2005 11:00 0.2 C 74 % 1024.6 hPa 0.0 l/m 7.5 km/h (2 Bft) W-NW 0.53 h 217 W/m -3.9 C -1.8 C
18.12.2005 12:00 0.3 C 71 % 1024.8 hPa 0.0 l/m 12.6 km/h (3 Bft) W-NW 0.07 h 178 W/m -4.3 C -3.3 C
18.12.2005 13:00 0.3 C 72 % 1024.8 hPa 0.0 l/m 13.2 km/h (3 Bft) W-NW 0.00 h 127 W/m -4.1 C -3.6 C
18.12.2005 14:00 0.2 C 74 % 1024.8 hPa 0.0 l/m 11.1 km/h (2 Bft) W 0.00 h 70 W/m -3.8 C -3.2 C
18.12.2005 15:00 0.1 C 76 % 1024.8 hPa 0.0 l/m 1.2 km/h (1 Bft) W 0.00 h 33 W/m -3.7 C -0.2 C
18.12.2005 16:00 -0.2 C 77 % 1025.1 hPa 0.0 l/m 0.1 km/h (0 Bft) N 0.00 h 9 W/m -3.6 C -0.2 C
18.12.2005 17:00 -0.2 C 76 % 1025.9 hPa 0.0 l/m 6.2 km/h (2 Bft) W 0.00 h 0 W/m -3.8 C -2.0 C
18.12.2005 18:00 -0.1 C 76 % 1025.9 hPa 0.0 l/m 7.0 km/h (2 Bft) W-NW 0.00 h 0 W/m -3.9 C -2.3 C
18.12.2005 19:00 -0.2 C 74 % 1026.7 hPa 0.0 l/m 3.8 km/h (1 Bft) W-SW 0.00 h 0 W/m -4.4 C -1.3 C
18.12.2005 20:00 -0.3 C 74 % 1027.0 hPa 0.0 l/m 1.4 km/h (1 Bft) W-NW 0.00 h 0 W/m -4.4 C -0.7 C
18.12.2005 21:00 -0.5 C 74 % 1027.0 hPa 0.0 l/m 5.2 km/h (1 Bft) W-NW 0.00 h 0 W/m -4.6 C -2.0 C
18.12.2005 22:00 -0.6 C 74 % 1027.0 hPa 0.0 l/m 0.7 km/h (0 Bft) NW 0.00 h 0 W/m -4.7 C -0.7 C
18.12.2005 23:00 -0.8 C 75 % 1027.0 hPa 0.0 l/m 0.1 km/h (0 Bft) N 0.00 h 0 W/m -4.6 C -0.8 C
Min-Datum _ 12.12.05 12.12.05 16.12.05 - 12.12.05 - - - 12.12.05 12.12.05
_ Min-Zeit 04:26 14:14 19:46 - 00:10 - - - 04:26 04:14
Minimum _ -5.8 C 50 % 1006.3 hPa - 0.0 km/h (0 Bft) - - - -9.3 C -11.9 C
Max-Datum _ 16.12.05 17.12.05 12.12.05 16.12.05 17.12.05 - 12.12.05 15.12.05 16.12.05 15.12.05
_ Max-Zeit 19:46 23:16 00:52 10:00 09:12 - 10:33 13:29 19:38 14:08
Maximum _ 6.1 C 95 % 1032.8 hPa 2.0 l/m 55.6 km/h
W-NW (7 Bft)
- 0.05 h 370 W/m 4.8 C 4.6 C
Durchschnitt _ 0.5 C 75 % 1022.5 hPa #18.2 l/m 7.5 km/h (2 Bft) W-NW #11:53 h 88 W/m -3.4 C -1.2 C
© Kaiko 2005